Time;durP1;ratioP1;P1;durP2;ratioP2;P2;SDS_P1;SDS_P2;PMS_P1;PMS_P2;Temp;Humidity;BMP_temperature;BMP_pressure;BME280_temperature;BME280_humidity;BME280_pressure;Samples;Min_cycle;Max_cycle;Signal;HPM_P1;HPM_P2
2023/09/29 00:01:13;;;;;;;11.80;9.40;;;;;;;14.67;80.98;101113.11;108972;277;38591;-71
2023/09/29 00:03:54;;;;;;;16.40;9.70;;;;;;;14.61;81.20;101106.33;108406;276;900231;-73
2023/09/29 00:06:32;;;;;;;13.60;9.40;;;;;;;14.56;81.35;101106.88;108993;276;39612;-73
2023/09/29 00:09:12;;;;;;;16.30;10.40;;;;;;;14.52;81.45;101107.27;109000;277;39357;-73
2023/09/29 00:11:50;;;;;;;11.50;9.50;;;;;;;14.48;81.73;101109.16;109046;277;39340;-72
2023/09/29 00:14:33;;;;;;;14.90;10.30;;;;;;;14.44;82.13;101109.10;109031;277;38155;-71
2023/09/29 00:17:13;;;;;;;18.20;10.00;;;;;;;14.44;82.45;101113.16;108980;277;39334;-73
2023/09/29 00:20:02;;;;;;;15.20;10.90;;;;;;;14.44;82.59;101107.91;109060;276;39112;-74
2023/09/29 00:22:45;;;;;;;14.60;11.20;;;;;;;14.43;82.79;101101.77;109055;277;39382;-73
2023/09/29 00:25:33;;;;;;;14.40;10.50;;;;;;;14.41;82.67;101105.02;108997;276;38779;-73
2023/09/29 00:28:10;;;;;;;14.90;10.60;;;;;;;14.37;82.70;101103.98;109011;277;38345;-71
2023/09/29 00:30:47;;;;;;;16.00;10.70;;;;;;;14.36;83.08;101104.55;109036;276;38223;-71
2023/09/29 00:33:28;;;;;;;15.30;10.80;;;;;;;14.35;83.06;101103.88;108985;277;38256;-71
2023/09/29 00:36:11;;;;;;;12.20;10.60;;;;;;;14.34;83.08;101104.47;108945;276;38447;-71
2023/09/29 00:38:54;;;;;;;16.50;11.00;;;;;;;14.33;83.14;101101.17;108955;277;38469;-71
2023/09/29 00:41:30;;;;;;;15.50;11.10;;;;;;;14.32;83.16;101103.30;108943;277;38674;-72
2023/09/29 00:44:06;;;;;;;12.60;11.10;;;;;;;14.30;83.12;101099.54;108951;277;38740;-71
2023/09/29 00:46:40;;;;;;;14.00;10.80;;;;;;;14.27;82.95;101097.73;109000;277;38640;-71
2023/09/29 00:49:14;;;;;;;15.40;11.30;;;;;;;14.22;83.11;101102.31;109022;276;38879;-71
2023/09/29 00:51:55;;;;;;;14.90;10.60;;;;;;;14.18;83.12;101099.84;109026;277;38953;-71
2023/09/29 00:54:37;;;;;;;14.10;11.30;;;;;;;14.14;83.15;101100.56;109044;277;38186;-74
2023/09/29 00:57:15;;;;;;;14.70;11.20;;;;;;;14.11;83.33;101099.30;109049;276;38193;-71
2023/09/29 00:59:51;;;;;;;13.90;11.20;;;;;;;14.04;83.05;101100.42;108887;277;38725;-71
2023/09/29 01:02:25;;;;;;;12.60;10.60;;;;;;;13.97;83.08;101104.05;109046;277;39854;-72
2023/09/29 01:05:04;;;;;;;12.50;10.40;;;;;;;13.93;83.07;101105.23;109044;276;38211;-71
2023/09/29 01:07:48;;;;;;;11.20;10.00;;;;;;;13.89;83.31;101100.84;108968;277;39396;-71
2023/09/29 01:10:30;;;;;;;13.10;11.50;;;;;;;13.88;83.57;101099.32;108839;277;174818;-71
2023/09/29 01:13:08;;;;;;;17.60;11.40;;;;;;;13.88;83.95;101094.60;108961;277;38519;-71
2023/09/29 01:15:42;;;;;;;13.70;11.30;;;;;;;13.88;84.22;101097.37;109008;277;38169;-72
2023/09/29 01:18:19;;;;;;;20.00;13.00;;;;;;;13.89;84.41;101098.21;109009;277;38168;-72
2023/09/29 01:20:58;;;;;;;16.60;12.70;;;;;;;13.89;84.41;101095.92;108954;277;38488;-71
2023/09/29 01:23:37;;;;;;;19.00;12.20;;;;;;;13.88;84.52;101092.15;108922;277;41091;-71
2023/09/29 01:26:13;;;;;;;12.80;11.10;;;;;;;13.88;84.74;101092.65;108372;276;901125;-71
2023/09/29 01:28:50;;;;;;;15.10;12.30;;;;;;;13.91;85.09;101092.71;108909;277;38702;-72
2023/09/29 01:31:27;;;;;;;15.70;12.60;;;;;;;13.95;85.29;101090.45;108974;276;38647;-71
2023/09/29 01:34:05;;;;;;;15.30;12.80;;;;;;;13.96;85.54;101083.92;108984;277;38154;-71
2023/09/29 01:36:50;;;;;;;16.80;12.70;;;;;;;14.00;85.82;101084.13;109018;277;39347;-73
2023/09/29 01:39:30;;;;;;;19.80;12.90;;;;;;;14.05;86.03;101080.42;109084;277;39624;-72
2023/09/29 01:42:07;;;;;;;;;;;;;;;14.09;86.32;101079.54;109036;277;40429;-71
2023/09/29 01:44:41;;;;;;;17.80;14.70;;;;;;;14.11;86.46;101073.31;108953;278;38578;-71
2023/09/29 01:47:15;;;;;;;21.40;13.80;;;;;;;14.13;86.21;101075.00;108974;278;38471;-71
2023/09/29 01:49:51;;;;;;;26.10;15.40;;;;;;;14.12;86.36;101071.87;108978;278;38145;-71
2023/09/29 01:52:33;;;;;;;18.90;13.40;;;;;;;14.12;86.16;101068.85;108848;278;175167;-71
2023/09/29 01:55:19;;;;;;;;;;;;;;;14.14;86.61;101073.00;108976;278;38668;-71
2023/09/29 01:57:55;;;;;;;19.30;14.10;;;;;;;14.15;86.64;101072.27;108952;278;41474;-70
2023/09/29 02:00:46;;;;;;;18.10;15.50;;;;;;;14.18;86.80;101078.10;108885;278;38462;-73
2023/09/29 02:03:35;;;;;;;19.70;15.10;;;;;;;14.17;86.77;101079.55;108925;278;39445;-71
2023/09/29 02:06:15;;;;;;;20.10;15.00;;;;;;;14.14;86.42;101077.55;108965;278;38325;-71
2023/09/29 02:08:49;;;;;;;16.60;13.50;;;;;;;14.13;86.30;101078.11;108897;278;39408;-71
2023/09/29 02:11:23;;;;;;;18.80;13.60;;;;;;;14.13;86.41;101079.34;108941;278;38233;-73
2023/09/29 02:13:57;;;;;;;17.70;14.10;;;;;;;14.11;86.25;101078.02;108888;278;38336;-71
2023/09/29 02:16:34;;;;;;;16.60;14.30;;;;;;;14.09;86.14;101076.02;108948;278;39749;-73
2023/09/29 02:19:10;;;;;;;19.80;13.80;;;;;;;14.09;86.56;101076.20;108929;277;38487;-72
2023/09/29 02:21:55;;;;;;;20.50;14.00;;;;;;;14.09;86.84;101072.34;108917;278;38472;-70
2023/09/29 02:24:41;;;;;;;18.50;14.30;;;;;;;14.11;87.08;101072.79;108960;278;38509;-71
2023/09/29 02:27:23;;;;;;;20.20;14.50;;;;;;;14.14;87.44;101071.98;108889;278;38761;-71
2023/09/29 02:29:58;;;;;;;18.30;14.20;;;;;;;14.19;87.49;101070.34;108908;278;38538;-71
2023/09/29 02:32:36;;;;;;;21.60;15.10;;;;;;;14.24;87.58;101072.26;108903;278;39021;-71
2023/09/29 02:35:11;;;;;;;20.80;15.60;;;;;;;14.28;87.66;101071.87;108961;278;39162;-71
2023/09/29 02:37:45;;;;;;;19.20;15.10;;;;;;;14.30;87.48;101071.46;108963;277;38268;-71
2023/09/29 02:40:20;;;;;;;19.30;14.60;;;;;;;14.29;87.35;101071.84;108979;277;39654;-71
2023/09/29 02:42:57;;;;;;;20.00;14.70;;;;;;;14.28;87.23;101072.27;109005;277;38571;-70
2023/09/29 02:45:47;;;;;;;22.50;15.70;;;;;;;14.27;87.07;101077.20;108986;276;38541;-71
2023/09/29 02:48:35;;;;;;;18.70;15.10;;;;;;;14.25;87.00;101074.66;109055;276;39741;-70
2023/09/29 02:51:23;;;;;;;18.80;14.40;;;;;;;14.18;86.60;101069.66;108989;276;38148;-71
2023/09/29 02:53:59;;;;;;;22.10;14.10;;;;;;;14.15;86.39;101065.41;108985;276;38291;-71
2023/09/29 02:56:34;;;;;;;17.70;14.40;;;;;;;14.09;86.15;101064.64;108252;276;761844;-71
2023/09/29 02:59:15;;;;;;;18.20;13.90;;;;;;;14.03;86.15;101067.67;108975;277;38883;-71
2023/09/29 03:01:54;;;;;;;17.80;13.60;;;;;;;13.98;86.14;101068.61;108983;276;38158;-71
2023/09/29 03:04:28;;;;;;;;;;;;;;;13.91;85.90;101069.36;108988;276;39465;-72
2023/09/29 03:07:05;;;;;;;16.20;12.30;;;;;;;13.82;85.86;101072.55;108931;277;38323;-71
2023/09/29 03:09:41;;;;;;;16.20;13.50;;;;;;;13.78;86.15;101075.17;109049;277;38526;-73
2023/09/29 03:12:24;;;;;;;16.60;13.50;;;;;;;13.76;86.34;101072.98;109013;276;38450;-71
2023/09/29 03:15:06;;;;;;;17.60;13.30;;;;;;;13.72;86.14;101072.79;109025;276;38357;-73
2023/09/29 03:17:40;;;;;;;14.80;12.70;;;;;;;13.65;85.91;101064.66;109029;276;38369;-72
2023/09/29 03:20:34;;;;;;;16.40;12.80;;;;;;;13.61;86.03;101066.20;108984;276;39002;-71
2023/09/29 03:23:31;;;;;;;18.40;13.30;;;;;;;13.54;85.84;101065.44;109084;276;38963;-71
2023/09/29 03:26:06;;;;;;;17.50;14.00;;;;;;;13.47;85.99;101072.71;108981;277;39717;-71
2023/09/29 03:28:40;;;;;;;19.90;13.70;;;;;;;13.42;86.24;101072.36;108984;276;38239;-73
2023/09/29 03:31:18;;;;;;;16.50;13.60;;;;;;;13.40;86.62;101074.54;108928;277;38570;-74
2023/09/29 03:33:52;;;;;;;20.70;15.70;;;;;;;13.41;86.91;101069.44;108991;276;38446;-73
2023/09/29 03:36:33;;;;;;;19.90;15.10;;;;;;;13.45;87.41;101066.50;108951;277;38349;-70
2023/09/29 03:39:17;;;;;;;19.80;16.20;;;;;;;13.48;88.07;101063.36;108950;273;38574;-71
2023/09/29 03:41:58;;;;;;;21.50;16.50;;;;;;;13.54;88.38;101062.80;109006;277;38410;-72
2023/09/29 03:44:39;;;;;;;19.70;16.10;;;;;;;13.57;88.61;101054.45;108195;277;896238;-73
2023/09/29 03:47:33;;;;;;;24.10;16.40;;;;;;;13.60;88.74;101056.42;109016;277;38157;-71
2023/09/29 03:50:14;;;;;;;24.60;16.90;;;;;;;13.64;89.09;101053.81;108960;269;40733;-73
2023/09/29 03:52:57;;;;;;;23.70;17.20;;;;;;;13.68;89.39;101055.56;108983;277;38401;-71
2023/09/29 03:55:33;;;;;;;24.00;17.40;;;;;;;13.74;89.58;101053.95;108958;277;39607;-70
2023/09/29 03:58:14;;;;;;;24.80;18.00;;;;;;;13.79;89.89;101052.16;109017;277;38137;-70
2023/09/29 04:00:49;;;;;;;25.20;18.40;;;;;;;13.83;90.06;101047.42;108975;277;39415;-72
2023/09/29 04:03:25;;;;;;;24.50;17.50;;;;;;;13.86;90.09;101048.55;108978;276;38865;-70
2023/09/29 04:06:02;;;;;;;21.80;16.90;;;;;;;13.88;89.85;101051.27;109067;276;38476;-70
2023/09/29 04:08:37;;;;;;;17.80;15.00;;;;;;;13.90;89.72;101049.44;109077;277;38247;-70
2023/09/29 04:11:11;;;;;;;21.40;16.60;;;;;;;13.91;89.60;101049.92;108986;277;39522;-71
2023/09/29 04:13:46;;;;;;;19.90;16.30;;;;;;;13.92;89.82;101049.51;108885;277;39216;-71
2023/09/29 04:16:20;;;;;;;22.80;15.80;;;;;;;13.96;89.85;101047.42;108924;277;39629;-73
2023/09/29 04:18:58;;;;;;;21.10;16.60;;;;;;;13.99;89.83;101045.02;108930;277;38242;-71
2023/09/29 04:21:40;;;;;;;21.40;16.90;;;;;;;14.01;89.75;101047.06;108947;277;38144;-71
2023/09/29 04:24:16;;;;;;;22.70;17.20;;;;;;;13.99;89.94;101041.34;108942;277;38262;-70
2023/09/29 04:26:54;;;;;;;21.10;16.40;;;;;;;14.01;90.06;101044.08;108961;277;38772;-71
2023/09/29 04:29:33;;;;;;;20.70;15.20;;;;;;;14.01;89.76;101044.95;108936;277;39725;-70
2023/09/29 04:32:07;;;;;;;21.60;16.00;;;;;;;14.01;89.71;101044.09;108971;277;38772;-73
2023/09/29 04:34:41;;;;;;;21.00;15.60;;;;;;;14.02;89.94;101042.80;108927;277;39047;-71
2023/09/29 04:37:18;;;;;;;19.60;15.90;;;;;;;14.03;89.83;101042.05;108957;277;38606;-73
2023/09/29 04:39:53;;;;;;;20.40;16.30;;;;;;;14.03;89.83;101043.28;108819;277;174682;-71
2023/09/29 04:42:33;;;;;;;21.40;15.90;;;;;;;14.05;89.88;101044.95;108968;277;38648;-72
2023/09/29 04:45:13;;;;;;;21.50;16.20;;;;;;;14.04;89.64;101044.27;108977;277;38421;-70
2023/09/29 04:47:49;;;;;;;21.70;15.60;;;;;;;14.04;89.52;101046.73;108951;277;38619;-72
2023/09/29 04:50:23;;;;;;;18.40;14.60;;;;;;;14.05;89.57;101045.50;108943;277;40009;-71
2023/09/29 04:52:57;;;;;;;19.50;14.90;;;;;;;14.06;89.77;101045.82;108970;276;38605;-73
2023/09/29 04:55:42;;;;;;;22.20;15.00;;;;;;;14.09;89.69;101042.86;108946;277;39328;-73
2023/09/29 04:58:30;;;;;;;20.90;15.50;;;;;;;14.15;89.99;101048.08;109039;276;38760;-72
2023/09/29 05:01:06;;;;;;;22.10;16.50;;;;;;;14.17;89.68;101046.36;109046;276;39322;-71
2023/09/29 05:03:42;;;;;;;20.70;15.50;;;;;;;14.15;89.27;101045.60;109015;276;38608;-71
2023/09/29 05:06:18;;;;;;;25.70;16.20;;;;;;;14.15;89.42;101047.66;108971;276;38294;-73
2023/09/29 05:08:56;;;;;;;21.60;14.60;;;;;;;14.18;89.31;101048.79;109014;276;38330;-71
2023/09/29 05:11:35;;;;;;;23.80;15.60;;;;;;;14.21;89.33;101047.63;108975;277;39090;-72
2023/09/29 05:14:14;;;;;;;19.30;15.60;;;;;;;14.25;89.59;101046.22;108971;277;38926;-71
2023/09/29 05:16:53;;;;;;;23.60;15.90;;;;;;;14.29;89.50;101047.64;108994;277;38367;-73
2023/09/29 05:19:33;;;;;;;21.00;15.00;;;;;;;14.34;89.67;101049.36;108974;277;38589;-70
2023/09/29 05:22:10;;;;;;;20.00;15.10;;;;;;;14.38;89.67;101047.60;108970;276;38387;-72
2023/09/29 05:24:44;;;;;;;23.70;15.80;;;;;;;14.44;89.59;101052.77;108946;276;39786;-71
2023/09/29 05:27:18;;;;;;;22.90;15.90;;;;;;;14.52;89.69;101050.02;108968;276;38721;-71
2023/09/29 05:29:55;;;;;;;21.80;15.00;;;;;;;14.57;89.66;101049.42;108934;276;39458;-71
2023/09/29 05:32:29;;;;;;;20.30;15.60;;;;;;;14.63;89.29;101050.05;109026;277;38872;-72
2023/09/29 05:35:08;;;;;;;20.50;15.10;;;;;;;14.75;89.72;101056.18;108927;277;38695;-71
2023/09/29 05:37:44;;;;;;;19.20;15.10;;;;;;;15.15;91.08;101054.02;109009;276;38151;-71
2023/09/29 05:40:21;;;;;;;23.30;15.70;;;;;;;15.72;91.49;101048.89;109001;276;39400;-70
2023/09/29 05:42:55;;;;;;;20.30;15.40;;;;;;;16.19;90.54;101049.90;109038;276;38180;-73
2023/09/29 05:45:30;;;;;;;20.30;16.00;;;;;;;16.55;88.89;101048.05;109115;276;38734;-73
2023/09/29 05:48:07;;;;;;;23.60;15.50;;;;;;;16.77;87.12;101052.06;109005;276;39630;-71
2023/09/29 05:50:43;;;;;;;21.50;14.80;;;;;;;17.05;85.89;101050.22;109045;277;38590;-72
2023/09/29 05:53:19;;;;;;;24.20;14.80;;;;;;;17.28;84.90;101054.59;108970;276;38554;-69
2023/09/29 05:55:56;;;;;;;15.40;13.80;;;;;;;17.33;84.47;101053.26;108996;276;38310;-74
2023/09/29 05:58:31;;;;;;;20.30;15.90;;;;;;;17.37;84.19;101056.02;108986;277;39666;-71
2023/09/29 06:01:17;;;;;;;23.00;16.50;;;;;;;17.43;83.71;101054.81;108967;276;38763;-71
2023/09/29 06:03:58;;;;;;;19.10;15.00;;;;;;;17.38;82.60;101056.17;108938;276;38142;-71
2023/09/29 06:06:35;;;;;;;21.50;15.10;;;;;;;17.28;81.79;101056.86;109044;277;40289;-73
2023/09/29 06:09:13;;;;;;;21.00;14.80;;;;;;;17.20;81.42;101057.81;106698;276;3013442;-71
2023/09/29 06:11:55;;;;;;;20.80;15.10;;;;;;;17.16;81.42;101057.71;109055;276;38774;-72
2023/09/29 06:14:32;;;;;;;19.40;14.00;;;;;;;17.16;81.60;101059.45;109010;276;38929;-73
2023/09/29 06:17:07;;;;;;;18.40;14.20;;;;;;;17.20;81.84;101059.95;109062;276;38685;-74
2023/09/29 06:19:42;;;;;;;20.20;15.30;;;;;;;17.21;81.35;101058.65;109034;277;39369;-73
2023/09/29 06:22:21;;;;;;;20.40;14.00;;;;;;;17.19;81.22;101059.30;109033;276;38320;-71
2023/09/29 06:24:58;;;;;;;18.70;14.10;;;;;;;17.21;81.14;101060.43;108998;276;38158;-72
2023/09/29 06:27:39;;;;;;;;;;;;;;;17.26;81.03;101059.13;109064;277;39516;-73
2023/09/29 06:30:18;;;;;;;19.00;13.90;;;;;;;17.28;81.20;101059.49;109025;276;38228;-72
2023/09/29 06:32:52;;;;;;;22.40;14.60;;;;;;;17.34;81.13;101059.73;109029;276;38221;-72
2023/09/29 06:35:27;;;;;;;21.90;14.60;;;;;;;17.39;80.90;101062.07;109042;276;40278;-70
2023/09/29 06:38:02;;;;;;;16.70;13.50;;;;;;;17.44;80.72;101061.44;109031;277;38893;-71
2023/09/29 06:40:43;;;;;;;17.00;13.30;;;;;;;17.51;80.68;101057.50;109066;276;39914;-70
2023/09/29 06:43:17;;;;;;;20.60;13.20;;;;;;;17.60;80.45;101057.73;108980;276;39867;-70
2023/09/29 06:45:51;;;;;;;18.70;14.50;;;;;;;17.69;80.41;101060.04;108998;276;38553;-70
2023/09/29 06:48:33;;;;;;;19.30;13.60;;;;;;;17.79;80.05;101056.70;109006;276;39535;-70
2023/09/29 06:51:12;;;;;;;20.40;13.60;;;;;;;17.88;79.94;101059.01;109047;277;38937;-70
2023/09/29 06:53:47;;;;;;;17.80;13.40;;;;;;;17.95;79.63;101061.41;108935;276;38340;-72
2023/09/29 06:56:21;;;;;;;17.70;12.90;;;;;;;18.03;79.55;101059.54;109027;276;38190;-71
2023/09/29 06:58:55;;;;;;;17.80;13.00;;;;;;;18.13;79.66;101066.06;108946;277;38680;-70
2023/09/29 07:01:37;;;;;;;17.10;13.00;;;;;;;18.22;79.80;101063.52;108979;276;39592;-71
2023/09/29 07:04:13;;;;;;;18.60;13.10;;;;;;;18.34;79.58;101063.91;108972;277;38319;-71
2023/09/29 07:06:53;;;;;;;20.50;13.10;;;;;;;18.45;79.18;101065.89;108997;276;38476;-70
2023/09/29 07:09:32;;;;;;;21.60;13.40;;;;;;;18.54;78.60;101063.39;108988;277;38600;-70
2023/09/29 07:12:07;;;;;;;19.10;12.30;;;;;;;18.63;78.62;101064.66;109044;276;38362;-70
2023/09/29 07:14:44;;;;;;;16.70;11.60;;;;;;;18.72;78.66;101068.34;109078;276;38156;-70
2023/09/29 07:17:19;;;;;;;20.40;13.10;;;;;;;18.85;78.26;101067.91;109040;276;39261;-72
2023/09/29 07:20:20;;;;;;;18.50;12.40;;;;;;;19.00;77.60;101065.03;109006;277;39011;-70
2023/09/29 07:23:03;;;;;;;19.30;12.80;;;;;;;19.17;77.04;101056.20;108852;277;174897;-71
2023/09/29 07:25:39;;;;;;;16.60;12.80;;;;;;;19.31;76.43;101059.03;109015;276;38254;-71
2023/09/29 07:28:18;;;;;;;16.90;12.40;;;;;;;19.41;76.15;101060.30;108978;276;39488;-72
2023/09/29 07:30:52;;;;;;;15.50;12.00;;;;;;;19.52;76.07;101062.27;108945;277;39522;-71
2023/09/29 07:33:26;;;;;;;14.00;11.60;;;;;;;19.63;75.68;101058.45;108964;276;38249;-72
2023/09/29 07:36:02;;;;;;;13.60;11.60;;;;;;;19.73;75.17;101061.67;108968;276;38239;-70
2023/09/29 07:38:38;;;;;;;16.30;11.60;;;;;;;19.89;75.55;101064.70;108994;277;37445;-70
2023/09/29 07:41:14;;;;;;;16.80;11.70;;;;;;;20.08;75.19;101065.70;109025;276;38260;-72
2023/09/29 07:43:49;;;;;;;19.20;12.40;;;;;;;20.24;73.81;101067.82;108987;277;39633;-72
2023/09/29 07:46:24;;;;;;;12.20;10.70;;;;;;;20.41;73.58;101063.46;109012;276;38765;-71
2023/09/29 07:48:57;;;;;;;17.40;11.20;;;;;;;20.67;73.21;101061.92;108962;276;39402;-74
2023/09/29 07:51:32;;;;;;;14.90;10.90;;;;;;;20.97;72.60;101059.27;109038;277;38780;-74
2023/09/29 07:54:11;;;;;;;14.20;11.50;;;;;;;21.32;72.81;101055.17;108982;277;38569;-74
2023/09/29 07:56:49;;;;;;;15.50;10.70;;;;;;;21.77;72.40;101050.70;109003;276;38180;-75
2023/09/29 07:59:23;;;;;;;14.40;10.10;;;;;;;22.40;72.19;101048.38;108994;277;38307;-74
2023/09/29 08:01:58;;;;;;;15.00;10.20;;;;;;;23.16;71.07;101049.39;108994;276;39502;-82
2023/09/29 08:04:33;;;;;;;14.10;10.60;;;;;;;23.92;68.27;101045.20;109040;277;38163;-81
2023/09/29 08:07:11;;;;;;;12.30;9.40;;;;;;;24.57;65.39;101048.24;109034;276;38513;-74
2023/09/29 08:09:48;;;;;;;;;;;;;;;25.21;63.06;101044.13;109024;277;39365;-74
2023/09/29 08:12:29;;;;;;;17.60;10.70;;;;;;;25.55;60.85;101043.20;108995;277;38229;-75
2023/09/29 08:15:11;;;;;;;13.30;9.30;;;;;;;25.88;59.92;101046.23;108985;277;39890;-76
2023/09/29 08:17:45;;;;;;;11.20;8.80;;;;;;;26.12;58.33;101054.04;109022;277;38229;-73
2023/09/29 08:20:22;;;;;;;13.50;8.60;;;;;;;26.26;56.97;101047.20;109002;277;38156;-81
2023/09/29 08:22:58;;;;;;;12.70;8.30;;;;;;;26.40;55.87;101049.86;108984;277;38748;-77
2023/09/29 08:25:34;;;;;;;14.50;9.10;;;;;;;26.42;54.91;101049.98;108923;277;38176;-75
2023/09/29 08:28:08;;;;;;;12.00;9.00;;;;;;;26.42;54.60;101044.09;108952;277;38913;-75
2023/09/29 08:30:42;;;;;;;17.00;9.10;;;;;;;26.43;54.49;101046.70;108916;277;38466;-75
2023/09/29 08:33:20;;;;;;;13.90;9.30;;;;;;;26.39;54.15;101047.28;109020;276;38606;-76
2023/09/29 08:35:55;;;;;;;14.50;8.10;;;;;;;26.38;53.94;101049.83;108962;277;38548;-76
2023/09/29 08:38:31;;;;;;;12.60;8.50;;;;;;;26.37;52.60;101049.93;109007;277;38152;-75
2023/09/29 08:41:06;;;;;;;15.90;8.90;;;;;;;26.28;52.63;101049.50;108969;276;38190;-75
2023/09/29 08:43:48;;;;;;;14.00;8.60;;;;;;;26.21;52.62;101046.95;108991;276;38398;-75
2023/09/29 08:46:23;;;;;;;12.80;8.80;;;;;;;26.18;52.77;101051.58;109016;277;38514;-75
2023/09/29 08:48:57;;;;;;;13.50;7.60;;;;;;;26.14;52.03;101048.00;109021;277;39065;-81
2023/09/29 08:51:33;;;;;;;17.90;8.90;;;;;;;26.05;52.24;101046.30;109081;276;38859;-73
2023/09/29 08:54:09;;;;;;;14.40;9.10;;;;;;;25.98;52.13;101047.17;109090;276;39302;-74
2023/09/29 08:56:43;;;;;;;12.20;8.00;;;;;;;25.91;52.17;101044.90;109029;277;38481;-73
2023/09/29 08:59:17;;;;;;;10.60;8.10;;;;;;;25.84;51.90;101045.27;108972;277;39333;-75
2023/09/29 09:01:55;;;;;;;12.30;7.90;;;;;;;25.74;52.07;101045.75;108985;277;39184;-74
2023/09/29 09:04:32;;;;;;;13.10;8.10;;;;;;;25.66;51.96;101046.48;108994;276;38190;-75
2023/09/29 09:07:07;;;;;;;12.40;7.90;;;;;;;25.59;52.32;101041.55;108997;276;38422;-75
2023/09/29 09:09:53;;;;;;;11.20;7.00;;;;;;;25.55;52.22;101041.90;108974;276;38183;-75
2023/09/29 09:12:40;;;;;;;16.60;7.70;;;;;;;25.49;52.18;101039.77;108931;276;38147;-76
2023/09/29 09:15:28;;;;;;;14.40;7.20;;;;;;;25.57;52.27;101036.55;108895;277;38797;-76
2023/09/29 09:18:04;;;;;;;9.60;6.90;;;;;;;25.74;51.73;101032.17;108945;276;39113;-75
2023/09/29 09:20:38;;;;;;;13.40;7.30;;;;;;;26.01;51.19;101031.11;108943;277;38261;-74
2023/09/29 09:23:14;;;;;;;8.40;6.90;;;;;;;26.41;50.73;101029.92;108942;277;39333;-77
2023/09/29 09:25:48;;;;;;;11.90;7.00;;;;;;;26.94;50.45;101033.10;108964;277;38168;-75
2023/09/29 09:28:26;;;;;;;12.70;7.00;;;;;;;27.52;49.21;101029.70;108992;276;38330;-76
2023/09/29 09:31:07;;;;;;;11.10;6.80;;;;;;;28.06;48.26;101027.17;109016;277;38231;-79
2023/09/29 09:33:48;;;;;;;8.70;6.70;;;;;;;28.64;46.89;101023.60;108834;276;171533;-77
2023/09/29 09:36:26;;;;;;;10.40;6.50;;;;;;;29.29;45.59;101021.42;109002;277;39723;-74
2023/09/29 09:39:13;;;;;;;11.30;6.10;;;;;;;29.95;43.95;101020.15;109035;276;39077;-76
2023/09/29 09:41:47;;;;;;;11.90;6.70;;;;;;;30.50;42.09;101021.16;108907;276;174288;-76
2023/09/29 09:44:26;;;;;;;15.70;6.90;;;;;;;30.85;41.28;101023.19;108988;277;38795;-75
2023/09/29 09:47:10;;;;;;;13.50;6.80;;;;;;;31.06;40.93;101025.42;109021;276;38735;-78
2023/09/29 09:49:48;;;;;;;10.70;6.70;;;;;;;31.03;40.27;101022.67;109035;277;39440;-78
2023/09/29 09:52:29;;;;;;;14.70;6.30;;;;;;;30.88;40.22;101021.13;109017;276;39333;-73
2023/09/29 09:55:13;;;;;;;8.70;6.40;;;;;;;30.68;39.82;101017.45;109090;276;38293;-75
2023/09/29 09:57:50;;;;;;;12.40;5.60;;;;;;;30.40;39.94;101011.60;108983;277;38444;-76
2023/09/29 10:00:31;;;;;;;12.30;5.60;;;;;;;30.08;39.86;101010.08;108962;276;39550;-76
2023/09/29 10:03:11;;;;;;;9.80;5.80;;;;;;;29.73;39.42;101007.67;108912;277;38343;-75
2023/09/29 10:05:52;;;;;;;10.80;6.00;;;;;;;29.44;39.82;101006.32;108998;276;38135;-76
2023/09/29 10:08:37;;;;;;;12.40;6.10;;;;;;;29.14;39.73;101005.02;109039;277;38144;-75
2023/09/29 10:11:17;;;;;;;10.70;6.50;;;;;;;28.86;40.31;101001.71;108963;277;39676;-75
2023/09/29 10:14:08;;;;;;;8.60;6.00;;;;;;;28.61;40.58;101001.70;109018;276;38148;-74
2023/09/29 10:16:43;;;;;;;7.40;5.50;;;;;;;28.39;41.00;101004.80;109036;276;38983;-75
2023/09/29 10:19:20;;;;;;;9.30;5.70;;;;;;;28.23;40.47;100999.41;108956;277;38160;-73
2023/09/29 10:21:55;;;;;;;9.80;6.30;;;;;;;28.07;40.90;100996.78;109007;277;38472;-75
2023/09/29 10:24:35;;;;;;;9.60;5.60;;;;;;;27.97;41.32;100995.86;108970;277;38298;-74
2023/09/29 10:27:13;;;;;;;10.60;5.80;;;;;;;27.86;40.82;100992.11;109035;276;38223;-75
2023/09/29 10:29:53;;;;;;;10.00;5.80;;;;;;;27.77;40.70;100990.65;109072;276;39866;-73
2023/09/29 10:32:36;;;;;;;8.10;5.40;;;;;;;27.67;40.41;100992.02;108944;277;38325;-74
2023/09/29 10:35:24;;;;;;;9.90;5.70;;;;;;;27.52;40.62;100987.57;109022;276;38164;-75
2023/09/29 10:38:23;;;;;;;8.40;5.30;;;;;;;27.44;40.68;100989.54;109063;276;38268;-79
2023/09/29 10:41:00;;;;;;;8.60;5.20;;;;;;;27.37;40.52;100991.30;108996;276;38224;-76
2023/09/29 10:43:40;;;;;;;8.30;5.20;;;;;;;27.27;40.01;100995.08;108984;277;38410;-74
2023/09/29 10:46:16;;;;;;;7.70;5.40;;;;;;;27.18;40.21;100982.55;108999;277;39825;-75
2023/09/29 10:48:53;;;;;;;7.60;5.00;;;;;;;27.15;40.42;100984.35;108992;276;37280;-74
2023/09/29 10:51:31;;;;;;;9.60;5.00;;;;;;;27.10;40.12;100978.55;108926;276;38317;-85
2023/09/29 10:54:09;;;;;;;7.70;5.30;;;;;;;27.03;40.52;100979.02;108957;277;38267;-76
2023/09/29 10:56:48;;;;;;;10.60;5.60;;;;;;;27.00;40.33;100972.70;108344;277;830538;-72
2023/09/29 10:59:22;;;;;;;8.30;5.20;;;;;;;26.97;40.62;100971.36;108987;276;38141;-74
2023/09/29 11:02:00;;;;;;;6.70;5.40;;;;;;;26.95;40.57;100965.09;109003;277;39478;-75
2023/09/29 11:04:37;;;;;;;8.40;5.00;;;;;;;26.95;40.47;100965.15;108982;277;39172;-75
2023/09/29 11:07:16;;;;;;;9.90;5.00;;;;;;;26.93;40.21;100964.59;109010;276;38786;-74
2023/09/29 11:09:52;;;;;;;12.10;5.20;;;;;;;26.91;39.73;100961.58;109002;277;38563;-75
2023/09/29 11:12:30;;;;;;;10.70;5.00;;;;;;;26.88;39.50;100957.21;109016;276;38535;-76
2023/09/29 11:15:13;;;;;;;8.40;5.10;;;;;;;26.84;39.37;100955.48;109013;276;39562;-77
2023/09/29 11:17:52;;;;;;;10.40;4.60;;;;;;;26.81;39.14;100952.36;109016;276;38137;-75
2023/09/29 11:20:27;;;;;;;6.20;4.20;;;;;;;26.79;39.44;100950.93;109043;277;38153;-74
2023/09/29 11:23:11;;;;;;;6.50;4.70;;;;;;;26.75;38.72;100946.73;108986;276;39646;-74
2023/09/29 11:25:56;;;;;;;6.40;4.60;;;;;;;26.69;39.05;100943.80;108961;277;38213;-80
2023/09/29 11:28:31;;;;;;;9.20;4.80;;;;;;;26.66;38.97;100939.66;109027;276;38642;-75
2023/09/29 11:31:06;;;;;;;8.00;4.90;;;;;;;26.63;38.72;100932.09;108971;276;38242;-73
2023/09/29 11:33:44;;;;;;;8.10;4.20;;;;;;;26.61;39.12;100932.98;108981;276;38417;-73
2023/09/29 11:36:23;;;;;;;6.70;4.10;;;;;;;26.60;38.63;100932.73;109016;277;38222;-75
2023/09/29 11:38:58;;;;;;;9.70;4.60;;;;;;;26.57;38.57;100923.35;108930;276;38170;-74
2023/09/29 11:41:33;;;;;;;6.60;4.40;;;;;;;26.55;38.48;100918.36;108911;276;39754;-73
2023/09/29 11:44:13;;;;;;;9.10;4.50;;;;;;;26.53;38.43;100924.77;108997;277;39446;-74
2023/09/29 11:46:52;;;;;;;6.40;4.10;;;;;;;26.50;38.22;100920.58;108950;277;38225;-75
2023/09/29 11:49:26;;;;;;;5.10;4.10;;;;;;;26.47;37.77;100917.85;108968;277;39351;-75
2023/09/29 11:52:03;;;;;;;5.20;4.50;;;;;;;26.44;38.08;100913.85;109006;277;38858;-76
2023/09/29 11:54:38;;;;;;;8.10;4.70;;;;;;;26.41;37.84;100912.18;108973;277;38419;-75
2023/09/29 11:57:15;;;;;;;6.50;4.40;;;;;;;26.37;37.18;100907.39;109005;276;38285;-75
2023/09/29 11:59:52;;;;;;;6.60;4.20;;;;;;;26.33;37.40;100900.42;108969;277;39128;-74
2023/09/29 12:02:26;;;;;;;7.70;4.00;;;;;;;26.30;37.53;100896.23;108997;277;38863;-74
2023/09/29 12:05:05;;;;;;;7.10;4.40;;;;;;;26.28;37.45;100892.54;108982;277;38258;-75